createdAt,value
2017-09-17T00:00:11.299Z,1001.52
2017-09-17T00:01:11.318Z,1001.5
2017-09-17T00:02:11.336Z,1001.45
2017-09-17T00:03:11.355Z,1001.49
2017-09-17T00:04:11.575Z,1001.46
2017-09-17T00:05:11.390Z,1001.44
2017-09-17T00:06:11.416Z,1001.41
2017-09-17T00:07:11.427Z,1001.45
2017-09-17T00:08:11.447Z,1001.45
2017-09-17T00:09:11.466Z,1001.45
2017-09-17T00:10:11.483Z,1001.43
2017-09-17T00:11:11.501Z,1001.46
2017-09-17T00:12:11.520Z,1001.53
2017-09-17T00:13:11.538Z,1001.5
2017-09-17T00:14:11.556Z,1001.48
2017-09-17T00:15:11.574Z,1001.48
2017-09-17T00:16:11.593Z,1001.48
2017-09-17T00:17:11.610Z,1001.47
2017-09-17T00:18:11.628Z,1001.47
2017-09-17T00:19:11.648Z,1001.48
2017-09-17T00:20:11.668Z,1001.45
2017-09-17T00:21:11.683Z,1001.51
2017-09-17T00:22:11.703Z,1001.45
2017-09-17T00:23:11.721Z,1001.46
2017-09-17T00:24:11.742Z,1001.45
2017-09-17T00:25:11.757Z,1001.43
2017-09-17T00:26:11.776Z,1001.45
2017-09-17T00:27:11.793Z,1001.46
2017-09-17T00:28:11.812Z,1001.43
2017-09-17T00:29:11.829Z,1001.41
2017-09-17T00:30:11.849Z,1001.44
2017-09-17T00:31:11.868Z,1001.42
2017-09-17T00:32:11.885Z,1001.39
2017-09-17T00:33:11.905Z,1001.41
2017-09-17T00:34:11.921Z,1001.38
2017-09-17T00:35:11.940Z,1001.4
2017-09-17T00:36:12.029Z,1001.35
2017-09-17T00:37:12.029Z,1001.34
2017-09-17T00:38:12.028Z,1001.35
2017-09-17T00:39:12.024Z,1001.37
2017-09-17T00:40:12.031Z,1001.36
2017-09-17T00:41:12.175Z,1001.39
2017-09-17T00:42:12.173Z,1001.4
2017-09-17T00:43:12.190Z,1001.41
2017-09-17T00:44:12.102Z,1001.4
2017-09-17T00:45:12.188Z,1001.42
2017-09-17T00:46:12.187Z,1001.41
2017-09-17T00:47:12.194Z,1001.41
2017-09-17T00:48:12.194Z,1001.38
2017-09-17T00:49:12.194Z,1001.35
2017-09-17T00:50:12.304Z,1001.33
2017-09-17T00:51:12.230Z,1001.37
2017-09-17T00:52:12.328Z,1001.29
2017-09-17T00:53:12.340Z,1001.34
2017-09-17T00:54:12.337Z,1001.33
2017-09-17T00:55:12.303Z,1001.35
2017-09-17T00:56:12.320Z,1001.3
2017-09-17T00:57:12.339Z,1001.34
2017-09-17T00:58:12.359Z,1001.36
2017-09-17T00:59:12.377Z,1001.35
2017-09-17T01:00:12.398Z,1001.35
2017-09-17T01:01:12.411Z,1001.35
2017-09-17T01:02:12.429Z,1001.36
2017-09-17T01:03:12.447Z,1001.34
2017-09-17T01:04:12.467Z,1001.3
2017-09-17T01:05:12.482Z,1001.31
2017-09-17T01:06:12.501Z,1001.32
2017-09-17T01:07:12.519Z,1001.29
2017-09-17T01:08:12.538Z,1001.3
2017-09-17T01:09:12.558Z,1001.33
2017-09-17T01:10:12.573Z,1001.3
2017-09-17T01:11:12.591Z,1001.33
2017-09-17T01:12:12.610Z,1001.35
2017-09-17T01:13:12.628Z,1001.35
2017-09-17T01:14:12.647Z,1001.34
2017-09-17T01:15:12.665Z,1001.38
2017-09-17T01:16:12.681Z,1001.38
2017-09-17T01:17:12.699Z,1001.41
2017-09-17T01:18:12.721Z,1001.41
2017-09-17T01:19:12.734Z,1001.41
2017-09-17T01:20:12.753Z,1001.43
2017-09-17T01:21:12.773Z,1001.46
2017-09-17T01:22:12.789Z,1001.46
2017-09-17T01:23:12.809Z,1001.46
2017-09-17T01:24:12.824Z,1001.44
2017-09-17T01:25:12.842Z,1001.43
2017-09-17T01:26:12.863Z,1001.44
2017-09-17T01:27:12.878Z,1001.48
2017-09-17T01:28:12.898Z,1001.47
2017-09-17T01:29:12.915Z,1001.52
2017-09-17T01:30:12.931Z,1001.48
2017-09-17T01:31:12.950Z,1001.5
2017-09-17T01:32:12.968Z,1001.53
2017-09-17T01:33:12.986Z,1001.53
2017-09-17T01:34:13.006Z,1001.49
2017-09-17T01:35:13.022Z,1001.49
2017-09-17T01:36:13.040Z,1001.48
2017-09-17T01:37:13.058Z,1001.5
2017-09-17T01:38:13.074Z,1001.46
2017-09-17T01:39:13.092Z,1001.47
2017-09-17T01:40:13.110Z,1001.47
2017-09-17T01:41:13.127Z,1001.44
2017-09-17T01:42:13.146Z,1001.47
2017-09-17T01:43:13.162Z,1001.46
2017-09-17T01:44:13.182Z,1001.44
2017-09-17T01:45:13.199Z,1001.45
2017-09-17T01:46:13.217Z,1001.45
2017-09-17T01:47:13.235Z,1001.4
2017-09-17T01:48:13.252Z,1001.42
2017-09-17T01:49:13.270Z,1001.43
2017-09-17T01:50:13.288Z,1001.4
2017-09-17T01:51:13.305Z,1001.37
2017-09-17T01:52:13.323Z,1001.42
2017-09-17T01:53:13.340Z,1001.38
2017-09-17T01:54:13.358Z,1001.38
2017-09-17T01:55:13.377Z,1001.38
2017-09-17T01:56:13.393Z,1001.37
2017-09-17T01:57:13.418Z,1001.38
2017-09-17T01:58:13.432Z,1001.34
2017-09-17T01:59:13.448Z,1001.32
2017-09-17T02:00:13.464Z,1001.32
2017-09-17T02:01:13.483Z,1001.29
2017-09-17T02:02:13.499Z,1001.25
2017-09-17T02:03:13.517Z,1001.25
2017-09-17T02:04:13.534Z,1001.21
2017-09-17T02:05:13.551Z,1001.19
2017-09-17T02:06:13.571Z,1001.18
2017-09-17T02:07:13.588Z,1001.2
2017-09-17T02:08:13.654Z,1001.19
2017-09-17T02:09:13.623Z,1001.24
2017-09-17T02:10:13.640Z,1001.23
2017-09-17T02:11:13.662Z,1001.23
2017-09-17T02:12:13.676Z,1001.25
2017-09-17T02:13:13.694Z,1001.19
2017-09-17T02:14:13.709Z,1001.24
2017-09-17T02:15:13.729Z,1001.24
2017-09-17T02:16:13.747Z,1001.26
2017-09-17T02:17:13.763Z,1001.25
2017-09-17T02:18:13.780Z,1001.25
2017-09-17T02:19:13.797Z,1001.27
2017-09-17T02:20:13.816Z,1001.26
2017-09-17T02:21:13.834Z,1001.3
2017-09-17T02:22:13.849Z,1001.32
2017-09-17T02:23:13.868Z,1001.3
2017-09-17T02:24:13.884Z,1001.34
2017-09-17T02:25:13.901Z,1001.34
2017-09-17T02:26:13.920Z,1001.37
2017-09-17T02:27:13.939Z,1001.38
2017-09-17T02:28:13.958Z,1001.34
2017-09-17T02:29:13.972Z,1001.38
2017-09-17T02:30:13.991Z,1001.42
2017-09-17T02:31:14.007Z,1001.38
2017-09-17T02:32:14.087Z,1001.4
2017-09-17T02:33:14.045Z,1001.41
2017-09-17T02:34:14.062Z,1001.45
2017-09-17T02:35:14.088Z,1001.42
2017-09-17T02:36:14.095Z,1001.43
2017-09-17T02:37:14.114Z,1001.4
2017-09-17T02:38:14.131Z,1001.41
2017-09-17T02:39:14.150Z,1001.45
2017-09-17T02:40:14.164Z,1001.41
2017-09-17T02:41:14.181Z,1001.44
2017-09-17T02:42:14.200Z,1001.42
2017-09-17T02:43:14.219Z,1001.43
2017-09-17T02:44:14.234Z,1001.37
2017-09-17T02:45:14.257Z,1001.39
2017-09-17T02:46:14.269Z,1001.4
2017-09-17T02:47:14.286Z,1001.41
2017-09-17T02:48:14.303Z,1001.46
2017-09-17T02:49:14.322Z,1001.46
2017-09-17T02:50:14.339Z,1001.43
2017-09-17T02:51:14.357Z,1001.44
2017-09-17T02:52:14.374Z,1001.39
2017-09-17T02:53:14.392Z,1001.42
2017-09-17T02:54:14.407Z,1001.42
2017-09-17T02:55:14.426Z,1001.38
2017-09-17T02:56:14.442Z,1001.41
2017-09-17T02:57:14.459Z,1001.44
2017-09-17T02:58:14.479Z,1001.44
2017-09-17T02:59:14.495Z,1001.44
2017-09-17T03:00:14.513Z,1001.41
2017-09-17T03:01:14.532Z,1001.42
2017-09-17T03:02:14.546Z,1001.44
2017-09-17T03:03:14.563Z,1001.4
2017-09-17T03:04:14.582Z,1001.42
2017-09-17T03:05:14.599Z,1001.43
2017-09-17T03:06:14.617Z,1001.38
2017-09-17T03:07:14.634Z,1001.43
2017-09-17T03:08:14.651Z,1001.41
2017-09-17T03:09:14.669Z,1001.41
2017-09-17T03:10:14.689Z,1001.39
2017-09-17T03:11:14.710Z,1001.42
2017-09-17T03:12:14.720Z,1001.42
2017-09-17T03:13:14.737Z,1001.41
2017-09-17T03:14:14.754Z,1001.39
2017-09-17T03:15:14.772Z,1001.4
2017-09-17T03:16:14.787Z,1001.38
2017-09-17T03:17:14.804Z,1001.41
2017-09-17T03:18:14.821Z,1001.41
2017-09-17T03:19:14.840Z,1001.42
2017-09-17T03:20:14.857Z,1001.43
2017-09-17T03:21:14.874Z,1001.41
2017-09-17T03:22:14.894Z,1001.42
2017-09-17T03:23:14.910Z,1001.41
2017-09-17T03:24:14.926Z,1001.44
2017-09-17T03:25:14.941Z,1001.43
2017-09-17T03:26:14.959Z,1001.44
2017-09-17T03:27:14.975Z,1001.44
2017-09-17T03:28:14.994Z,1001.48
2017-09-17T03:29:15.010Z,1001.42
2017-09-17T03:30:15.049Z,1001.48
2017-09-17T03:31:15.053Z,1001.47
2017-09-17T03:32:15.061Z,1001.5
2017-09-17T03:33:15.081Z,1001.5
2017-09-17T03:34:15.098Z,1001.55
2017-09-17T03:35:15.137Z,1001.54
2017-09-17T03:36:15.130Z,1001.53
2017-09-17T03:37:15.150Z,1001.53
2017-09-17T03:38:15.164Z,1001.57
2017-09-17T03:39:15.186Z,1001.6
2017-09-17T03:40:15.200Z,1001.6
2017-09-17T03:41:15.217Z,1001.58
2017-09-17T03:42:15.256Z,1001.61
2017-09-17T03:43:15.250Z,1001.54
2017-09-17T03:44:15.268Z,1001.58
2017-09-17T03:45:15.284Z,1001.57
2017-09-17T03:46:15.302Z,1001.53
2017-09-17T03:47:15.320Z,1001.5
2017-09-17T03:48:15.336Z,1001.5
2017-09-17T03:49:15.353Z,1001.5
2017-09-17T03:50:15.370Z,1001.51
2017-09-17T03:51:15.396Z,1001.46
2017-09-17T03:52:15.405Z,1001.47
2017-09-17T03:53:15.422Z,1001.51
2017-09-17T03:54:15.439Z,1001.45
2017-09-17T03:55:15.458Z,1001.42
2017-09-17T03:56:15.473Z,1001.42
2017-09-17T03:57:15.490Z,1001.42
2017-09-17T03:58:15.505Z,1001.44
2017-09-17T03:59:15.522Z,1001.47
2017-09-17T04:00:15.539Z,1001.48
2017-09-17T04:01:15.557Z,1001.46
2017-09-17T04:02:15.575Z,1001.48
2017-09-17T04:03:15.593Z,1001.45
2017-09-17T04:04:15.606Z,1001.43
2017-09-17T04:05:15.625Z,1001.46
2017-09-17T04:06:15.643Z,1001.45
2017-09-17T04:07:15.661Z,1001.42
2017-09-17T04:08:15.674Z,1001.39
2017-09-17T04:09:15.694Z,1001.4
2017-09-17T04:10:15.709Z,1001.42
2017-09-17T04:11:15.726Z,1001.43
2017-09-17T04:12:15.744Z,1001.44
2017-09-17T04:13:15.760Z,1001.43
2017-09-17T04:14:15.777Z,1001.45
2017-09-17T04:15:15.794Z,1001.44
2017-09-17T04:16:15.811Z,1001.45
2017-09-17T04:17:15.827Z,1001.46
2017-09-17T04:18:15.849Z,1001.48
2017-09-17T04:19:15.861Z,1001.45
2017-09-17T04:20:15.879Z,1001.47
2017-09-17T04:21:15.897Z,1001.46
2017-09-17T04:22:15.912Z,1001.42
2017-09-17T04:23:15.931Z,1001.41
2017-09-17T04:24:15.945Z,1001.44
2017-09-17T04:25:15.962Z,1001.42
2017-09-17T04:26:15.980Z,1001.42
2017-09-17T04:27:15.998Z,1001.4
2017-09-17T04:28:16.017Z,1001.43
2017-09-17T04:29:16.028Z,1001.43
2017-09-17T04:30:16.047Z,1001.44
2017-09-17T04:31:16.064Z,1001.47
2017-09-17T04:32:16.085Z,1001.46
2017-09-17T04:33:16.096Z,1001.48
2017-09-17T04:34:16.115Z,1001.5
2017-09-17T04:35:16.132Z,1001.51
2017-09-17T04:36:16.149Z,1001.5
2017-09-17T04:37:16.163Z,1001.55
2017-09-17T04:38:16.182Z,1001.61
2017-09-17T04:39:16.198Z,1001.6
2017-09-17T04:40:16.215Z,1001.62
2017-09-17T04:41:16.232Z,1001.62
2017-09-17T04:42:16.249Z,1001.64
2017-09-17T04:43:16.266Z,1001.65
2017-09-17T04:44:16.284Z,1001.65
2017-09-17T04:45:16.298Z,1001.62
2017-09-17T04:46:16.317Z,1001.58
2017-09-17T04:47:16.332Z,1001.62
2017-09-17T04:48:16.350Z,1001.63
2017-09-17T04:49:16.366Z,1001.65
2017-09-17T04:50:16.384Z,1001.64
2017-09-17T04:51:16.398Z,1001.68
2017-09-17T04:52:16.416Z,1001.72
2017-09-17T04:53:16.434Z,1001.74
2017-09-17T04:54:16.452Z,1001.79
2017-09-17T04:55:16.467Z,1001.76
2017-09-17T04:56:16.483Z,1001.77
2017-09-17T04:57:16.501Z,1001.74
2017-09-17T04:58:16.518Z,1001.75
2017-09-17T04:59:16.533Z,1001.74
2017-09-17T05:00:16.550Z,1001.77
2017-09-17T05:01:16.567Z,1001.81
2017-09-17T05:02:16.585Z,1001.85
2017-09-17T05:03:16.600Z,1001.86
2017-09-17T05:04:16.619Z,1001.86
2017-09-17T05:05:16.632Z,1001.89
2017-09-17T05:06:16.648Z,1001.92
2017-09-17T05:07:16.691Z,1001.98
2017-09-17T05:08:16.688Z,1001.96
2017-09-17T05:09:16.702Z,1001.96
2017-09-17T05:10:16.717Z,1001.93
2017-09-17T05:11:16.735Z,1001.94
2017-09-17T05:12:16.749Z,1001.92
2017-09-17T05:13:16.767Z,1001.93
2017-09-17T05:14:16.783Z,1001.93
2017-09-17T05:15:16.801Z,1001.94
2017-09-17T05:16:16.817Z,1001.94
2017-09-17T05:17:16.832Z,1001.94
2017-09-17T05:18:16.849Z,1001.97
2017-09-17T05:19:16.865Z,1001.98
2017-09-17T05:20:16.882Z,1001.94
2017-09-17T05:21:16.898Z,1001.95
2017-09-17T05:22:16.914Z,1001.99
2017-09-17T05:23:16.935Z,1001.96
2017-09-17T05:24:16.949Z,1001.97
2017-09-17T05:25:16.964Z,1001.95
2017-09-17T05:26:16.983Z,1001.92
2017-09-17T05:27:17.000Z,1001.96
2017-09-17T05:28:17.014Z,1001.93
2017-09-17T05:29:17.031Z,1001.91
2017-09-17T05:30:17.050Z,1001.92
2017-09-17T05:31:17.066Z,1001.91
2017-09-17T05:32:17.080Z,1001.91
2017-09-17T05:33:17.099Z,1001.86
2017-09-17T05:34:17.116Z,1001.89
2017-09-17T05:35:17.131Z,1001.85
2017-09-17T05:36:17.147Z,1001.86
2017-09-17T05:37:17.165Z,1001.84
2017-09-17T05:38:17.182Z,1001.83
2017-09-17T05:39:17.196Z,1001.84
2017-09-17T05:40:17.214Z,1001.82
2017-09-17T05:41:17.231Z,1001.86
2017-09-17T05:42:17.251Z,1001.86
2017-09-17T05:43:17.263Z,1001.82
2017-09-17T05:44:17.280Z,1001.83
2017-09-17T05:45:17.298Z,1001.82
2017-09-17T05:46:17.313Z,1001.82
2017-09-17T05:47:17.330Z,1001.8
2017-09-17T05:48:17.345Z,1001.8
2017-09-17T05:49:17.363Z,1001.83
2017-09-17T05:50:17.378Z,1001.8
2017-09-17T05:51:17.394Z,1001.79
2017-09-17T05:52:17.427Z,1001.77
2017-09-17T05:53:17.431Z,1001.77
2017-09-17T05:54:17.458Z,1001.8
2017-09-17T05:55:17.462Z,1001.81
2017-09-17T05:56:17.480Z,1001.82
2017-09-17T05:57:17.496Z,1001.8
2017-09-17T05:58:17.512Z,1001.83
2017-09-17T05:59:17.529Z,1001.81
2017-09-17T06:00:17.545Z,1001.79
2017-09-17T06:01:17.562Z,1001.8
2017-09-17T06:02:17.577Z,1001.82
2017-09-17T06:03:17.595Z,1001.81
2017-09-17T06:04:17.611Z,1001.82
2017-09-17T06:05:17.626Z,1001.83
2017-09-17T06:06:17.645Z,1001.89
2017-09-17T06:07:17.662Z,1001.83
2017-09-17T06:08:17.677Z,1001.82
2017-09-17T06:09:17.694Z,1001.86
2017-09-17T06:10:17.762Z,1001.84
2017-09-17T06:11:17.728Z,1001.88
2017-09-17T06:12:17.743Z,1001.89
2017-09-17T06:13:17.759Z,1001.9
2017-09-17T06:14:17.778Z,1001.89
2017-09-17T06:15:17.793Z,1001.92
2017-09-17T06:16:17.807Z,1001.97
2017-09-17T06:17:17.826Z,1001.92
2017-09-17T06:18:17.841Z,1002
2017-09-17T06:19:17.859Z,1002
2017-09-17T06:20:17.876Z,1002.03
2017-09-17T06:21:17.890Z,1002.03
2017-09-17T06:22:17.910Z,1002.07
2017-09-17T06:23:17.927Z,1002.03
2017-09-17T06:24:17.942Z,1002.06
2017-09-17T06:25:17.957Z,1002.05
2017-09-17T06:26:17.974Z,1002.07
2017-09-17T06:27:17.991Z,1002.03
2017-09-17T06:28:18.008Z,1002.02
2017-09-17T06:29:18.025Z,1002.02
2017-09-17T06:30:18.042Z,1001.97
2017-09-17T06:31:18.056Z,1002.02
2017-09-17T06:32:18.079Z,1002.02
2017-09-17T06:33:18.089Z,1002.03
2017-09-17T06:34:18.106Z,1002.02
2017-09-17T06:35:18.125Z,1002.03
2017-09-17T06:36:18.143Z,1002.02
2017-09-17T06:37:18.156Z,1002.03
2017-09-17T06:38:18.172Z,1002
2017-09-17T06:39:18.189Z,1002
2017-09-17T06:40:18.206Z,1002.02
2017-09-17T06:41:18.224Z,1002.01
2017-09-17T06:42:18.238Z,1001.99
2017-09-17T06:43:18.256Z,1001.97
2017-09-17T06:44:18.273Z,1001.98
2017-09-17T06:45:18.290Z,1001.95
2017-09-17T06:46:18.308Z,1001.96
2017-09-17T06:47:18.325Z,1001.98
2017-09-17T06:48:18.339Z,1002.01
2017-09-17T06:49:18.356Z,1002
2017-09-17T06:50:18.373Z,1001.94
2017-09-17T06:51:18.391Z,1001.98
2017-09-17T06:52:18.406Z,1002.01
2017-09-17T06:53:18.423Z,1002.04
2017-09-17T06:54:18.438Z,1002.03
2017-09-17T06:55:18.455Z,1002.04
2017-09-17T06:56:18.474Z,1002.04
2017-09-17T06:57:18.490Z,1002.07
2017-09-17T06:58:18.505Z,1002.06
2017-09-17T06:59:18.523Z,1002.13
2017-09-17T07:00:18.540Z,1002.12
2017-09-17T07:01:18.558Z,1002.15
2017-09-17T07:02:18.574Z,1002.15
2017-09-17T07:03:18.589Z,1002.14
2017-09-17T07:04:18.606Z,1002.16
2017-09-17T07:05:18.634Z,1002.22
2017-09-17T07:06:18.641Z,1002.17
2017-09-17T07:07:18.658Z,1002.19
2017-09-17T07:08:18.674Z,1002.23
2017-09-17T07:09:18.690Z,1002.22
2017-09-17T07:10:18.707Z,1002.26
2017-09-17T07:11:18.727Z,1002.26
2017-09-17T07:12:18.743Z,1002.26
2017-09-17T07:13:18.764Z,1002.26
2017-09-17T07:14:18.775Z,1002.19
2017-09-17T07:15:18.791Z,1002.26
2017-09-17T07:16:18.812Z,1002.23
2017-09-17T07:17:18.828Z,1002.23
2017-09-17T07:18:18.844Z,1002.2
2017-09-17T07:19:18.864Z,1002.18
2017-09-17T07:20:18.879Z,1002.15
2017-09-17T07:21:18.896Z,1002.18
2017-09-17T07:22:18.911Z,1002.17
2017-09-17T07:23:18.930Z,1002.2
2017-09-17T07:24:18.948Z,1002.2
2017-09-17T07:25:18.968Z,1002.17
2017-09-17T07:26:18.982Z,1002.19
2017-09-17T07:27:18.999Z,1002.22
2017-09-17T07:28:19.016Z,1002.23
2017-09-17T07:29:19.033Z,1002.27
2017-09-17T07:30:19.051Z,1002.22
2017-09-17T07:31:19.070Z,1002.26
2017-09-17T07:32:19.084Z,1002.24
2017-09-17T07:33:19.103Z,1002.25
2017-09-17T07:34:19.119Z,1002.23
2017-09-17T07:35:19.137Z,1002.28
2017-09-17T07:36:19.156Z,1002.27
2017-09-17T07:37:19.174Z,1002.26
2017-09-17T07:38:19.191Z,1002.28
2017-09-17T07:39:19.209Z,1002.29
2017-09-17T07:40:19.225Z,1002.29
2017-09-17T07:41:19.244Z,1002.31
2017-09-17T07:42:19.261Z,1002.28
2017-09-17T07:43:19.278Z,1002.28
2017-09-17T07:44:19.295Z,1002.3
2017-09-17T07:45:19.317Z,1002.32
2017-09-17T07:46:19.329Z,1002.36
2017-09-17T07:47:19.349Z,1002.33
2017-09-17T07:48:19.367Z,1002.34
2017-09-17T07:49:19.382Z,1002.33
2017-09-17T07:50:19.407Z,1002.36
2017-09-17T07:51:19.419Z,1002.37
2017-09-17T07:52:19.437Z,1002.33
2017-09-17T07:53:19.454Z,1002.37
2017-09-17T07:54:19.472Z,1002.35
2017-09-17T07:55:19.488Z,1002.38
2017-09-17T07:56:19.511Z,1002.36
2017-09-17T07:57:19.525Z,1002.38
2017-09-17T07:58:19.546Z,1002.36
2017-09-17T07:59:19.560Z,1002.35
2017-09-17T08:00:19.581Z,1002.35
2017-09-17T08:01:19.596Z,1002.34
2017-09-17T08:02:19.671Z,1002.35
2017-09-17T08:03:19.632Z,1002.35
2017-09-17T08:04:19.650Z,1002.33
2017-09-17T08:05:19.669Z,1002.37
2017-09-17T08:06:19.685Z,1002.36
2017-09-17T08:07:19.705Z,1002.35
2017-09-17T08:08:19.723Z,1002.33
2017-09-17T08:09:19.741Z,1002.37
2017-09-17T08:10:19.758Z,1002.36
2017-09-17T08:11:19.779Z,1002.39
2017-09-17T08:12:19.795Z,1002.41
2017-09-17T08:13:19.814Z,1002.38
2017-09-17T08:14:19.831Z,1002.4
2017-09-17T08:15:19.853Z,1002.39
2017-09-17T08:16:19.871Z,1002.34
2017-09-17T08:17:19.885Z,1002.32
2017-09-17T08:18:19.906Z,1002.32
2017-09-17T08:19:19.922Z,1002.29
2017-09-17T08:20:19.955Z,1002.3
2017-09-17T08:21:19.959Z,1002.3
2017-09-17T08:22:19.977Z,1002.34
2017-09-17T08:23:20.002Z,1002.27
2017-09-17T08:24:20.014Z,1002.3
2017-09-17T08:25:20.037Z,1002.27
2017-09-17T08:26:20.053Z,1002.24
2017-09-17T08:27:20.101Z,1002.22
2017-09-17T08:28:20.090Z,1002.22
2017-09-17T08:29:20.109Z,1002.18
2017-09-17T08:30:20.126Z,1002.21
2017-09-17T08:31:20.146Z,1002.2
2017-09-17T08:32:20.162Z,1002.2
2017-09-17T08:33:20.183Z,1002.19
2017-09-17T08:34:20.207Z,1002.2
2017-09-17T08:35:20.220Z,1002.2
2017-09-17T08:36:20.240Z,1002.17
2017-09-17T08:37:20.258Z,1002.12
2017-09-17T08:38:20.275Z,1002.09
2017-09-17T08:39:20.296Z,1002.07
2017-09-17T08:40:20.313Z,1002.06
2017-09-17T08:41:20.335Z,1002.07
2017-09-17T08:42:20.352Z,1002.04
2017-09-17T08:43:20.370Z,1002.01
2017-09-17T08:44:20.391Z,1002.06
2017-09-17T08:45:20.408Z,1002.05
2017-09-17T08:46:20.429Z,1002.05
2017-09-17T08:47:20.449Z,1002.03
2017-09-17T08:48:20.465Z,1002.03
2017-09-17T08:49:20.485Z,1002.05
2017-09-17T08:50:20.503Z,1002.07
2017-09-17T08:51:20.523Z,1002.06
2017-09-17T08:52:20.543Z,1002.07
2017-09-17T08:53:20.561Z,1002.04
2017-09-17T08:54:20.578Z,1002.02
2017-09-17T08:55:20.600Z,1002.04
2017-09-17T08:56:20.618Z,1002.05
2017-09-17T08:57:20.637Z,1002.05
2017-09-17T08:58:20.657Z,1002.06
2017-09-17T08:59:20.676Z,1002.03
2017-09-17T09:00:20.694Z,1002.07
2017-09-17T09:01:20.714Z,1002.04
2017-09-17T09:02:20.735Z,1002.07
2017-09-17T09:03:20.752Z,1002.08
2017-09-17T09:04:20.773Z,1002.08
2017-09-17T09:05:20.791Z,1002.1
2017-09-17T09:06:20.812Z,1002.08
2017-09-17T09:07:20.829Z,1002.08
2017-09-17T09:08:20.850Z,1002.05
2017-09-17T09:09:20.870Z,1002.06
2017-09-17T09:10:20.889Z,1002.08
2017-09-17T09:11:20.909Z,1002.07
2017-09-17T09:12:20.926Z,1002.09
2017-09-17T09:13:20.952Z,1002.08
2017-09-17T09:14:20.967Z,1002.06
2017-09-17T09:15:20.986Z,1002.03
2017-09-17T09:16:21.006Z,1002.02
2017-09-17T09:17:21.024Z,1002.01
2017-09-17T09:18:21.045Z,1002
2017-09-17T09:19:21.065Z,1001.98
2017-09-17T09:20:21.085Z,1002
2017-09-17T09:21:21.104Z,1002.01
2017-09-17T09:22:21.124Z,1002.05
2017-09-17T09:23:21.143Z,1002
2017-09-17T09:24:21.162Z,1002.04
2017-09-17T09:25:21.180Z,1002.04
2017-09-17T09:26:21.202Z,1002
2017-09-17T09:27:21.224Z,1001.97
2017-09-17T09:28:21.241Z,1001.97
2017-09-17T09:29:21.263Z,1001.97
2017-09-17T09:30:21.280Z,1001.99
2017-09-17T09:31:21.300Z,1001.99
2017-09-17T09:32:21.321Z,1001.97
2017-09-17T09:33:21.349Z,1001.97
2017-09-17T09:34:21.361Z,1001.96
2017-09-17T09:35:21.379Z,1001.95
2017-09-17T09:36:21.400Z,1001.89
2017-09-17T09:37:21.421Z,1001.94
2017-09-17T09:38:21.440Z,1001.91
2017-09-17T09:39:21.461Z,1001.94
2017-09-17T09:40:21.479Z,1001.89
2017-09-17T09:41:21.501Z,1001.84
2017-09-17T09:42:21.525Z,1001.89
2017-09-17T09:43:21.543Z,1001.86
2017-09-17T09:44:21.562Z,1001.85
2017-09-17T09:45:21.580Z,1001.86
2017-09-17T09:46:21.609Z,1001.84
2017-09-17T09:47:21.635Z,1001.9
2017-09-17T09:48:21.651Z,1001.89
2017-09-17T09:49:21.663Z,1001.85
2017-09-17T09:50:21.684Z,1001.87
2017-09-17T09:51:21.708Z,1001.87
2017-09-17T09:52:21.726Z,1001.85
2017-09-17T09:53:21.744Z,1001.83
2017-09-17T09:54:21.765Z,1001.84
2017-09-17T09:55:21.786Z,1001.85
2017-09-17T09:56:21.807Z,1001.83
2017-09-17T09:57:21.825Z,1001.79
2017-09-17T09:58:21.847Z,1001.82
2017-09-17T09:59:21.869Z,1001.83
2017-09-17T10:00:21.888Z,1001.83
2017-09-17T10:01:21.909Z,1001.84
2017-09-17T10:02:21.929Z,1001.84
2017-09-17T10:03:21.950Z,1001.81
2017-09-17T10:04:21.971Z,1001.85
2017-09-17T10:05:21.991Z,1001.84
2017-09-17T10:06:22.010Z,1001.8
2017-09-17T10:07:22.032Z,1001.83
2017-09-17T10:08:22.052Z,1001.86
2017-09-17T10:09:22.077Z,1001.79
2017-09-17T10:10:22.096Z,1001.79
2017-09-17T10:11:22.115Z,1001.8
2017-09-17T10:12:22.137Z,1001.8
2017-09-17T10:13:22.157Z,1001.8
2017-09-17T10:14:22.180Z,1001.75
2017-09-17T10:15:22.204Z,1001.75
2017-09-17T10:16:22.314Z,1001.78
2017-09-17T10:17:22.243Z,1001.78
2017-09-17T10:18:22.264Z,1001.76
2017-09-17T10:19:22.284Z,1001.78
2017-09-17T10:20:22.306Z,1001.76
2017-09-17T10:21:22.326Z,1001.74
2017-09-17T10:22:22.348Z,1001.77
2017-09-17T10:23:22.369Z,1001.73
2017-09-17T10:24:22.391Z,1001.79
2017-09-17T10:25:22.412Z,1001.76
2017-09-17T10:26:22.434Z,1001.74
2017-09-17T10:27:22.456Z,1001.75
2017-09-17T10:28:22.475Z,1001.72
2017-09-17T10:29:22.498Z,1001.73
2017-09-17T10:30:22.520Z,1001.75
2017-09-17T10:31:22.542Z,1001.7
2017-09-17T10:32:22.562Z,1001.71
2017-09-17T10:33:22.582Z,1001.73
2017-09-17T10:34:22.606Z,1001.71
2017-09-17T10:35:22.628Z,1001.7
2017-09-17T10:36:22.648Z,1001.69
2017-09-17T10:37:22.671Z,1001.69
2017-09-17T10:38:22.694Z,1001.64
2017-09-17T10:39:22.712Z,1001.62
2017-09-17T10:40:22.736Z,1001.56
2017-09-17T10:41:22.758Z,1001.56
2017-09-17T10:42:22.781Z,1001.53
2017-09-17T10:43:22.804Z,1001.53
2017-09-17T10:44:22.824Z,1001.61
2017-09-17T10:45:22.844Z,1001.53
2017-09-17T10:46:22.867Z,1001.54
2017-09-17T10:47:22.890Z,1001.54
2017-09-17T10:48:22.912Z,1001.53
2017-09-17T10:49:22.933Z,1001.52
2017-09-17T10:50:22.955Z,1001.52
2017-09-17T10:51:22.977Z,1001.51
2017-09-17T10:52:22.998Z,1001.5
2017-09-17T10:53:23.022Z,1001.45
2017-09-17T10:54:23.042Z,1001.44
2017-09-17T10:55:23.067Z,1001.43
2017-09-17T10:56:23.087Z,1001.39
2017-09-17T10:57:23.110Z,1001.41
2017-09-17T10:58:23.133Z,1001.38
2017-09-17T10:59:23.170Z,1001.4
2017-09-17T11:00:23.179Z,1001.35
2017-09-17T11:01:23.199Z,1001.3
2017-09-17T11:02:23.222Z,1001.34
2017-09-17T11:03:23.244Z,1001.33
2017-09-17T11:04:23.264Z,1001.33
2017-09-17T11:05:23.294Z,1001.3
2017-09-17T11:06:23.313Z,1001.27
2017-09-17T11:07:23.332Z,1001.3
2017-09-17T11:08:23.354Z,1001.26
2017-09-17T11:09:23.377Z,1001.29
2017-09-17T11:10:23.401Z,1001.21
2017-09-17T11:11:23.424Z,1001.24
2017-09-17T11:12:23.445Z,1001.22
2017-09-17T11:13:23.472Z,1001.18
2017-09-17T11:14:23.490Z,1001.17
2017-09-17T11:15:23.513Z,1001.17
2017-09-17T11:16:23.534Z,1001.12
2017-09-17T11:17:23.558Z,1001.19
2017-09-17T11:18:23.581Z,1001.15
2017-09-17T11:19:23.609Z,1001.1
2017-09-17T11:20:23.626Z,1001.13
2017-09-17T11:21:23.650Z,1001.1
2017-09-17T11:22:23.672Z,1001.06
2017-09-17T11:23:23.695Z,1001.07
2017-09-17T11:24:23.719Z,1001.07
2017-09-17T11:25:23.742Z,1001.01
2017-09-17T11:26:23.763Z,1001.03
2017-09-17T11:27:23.786Z,1000.99
2017-09-17T11:28:23.812Z,1000.96
2017-09-17T11:29:23.834Z,1000.95
2017-09-17T11:30:23.855Z,1000.93
2017-09-17T11:31:23.878Z,1000.92
2017-09-17T11:32:23.904Z,1000.9
2017-09-17T11:33:23.924Z,1000.88
2017-09-17T11:34:23.949Z,1000.89
2017-09-17T11:35:23.970Z,1000.88
2017-09-17T11:36:23.997Z,1000.86
2017-09-17T11:37:24.018Z,1000.83
2017-09-17T11:38:24.042Z,1000.84
2017-09-17T11:39:24.067Z,1000.84
2017-09-17T11:40:24.086Z,1000.8
2017-09-17T11:41:24.112Z,1000.8
2017-09-17T11:42:24.133Z,1000.8
2017-09-17T11:43:24.157Z,1000.76
2017-09-17T11:44:24.182Z,1000.79
2017-09-17T11:45:24.204Z,1000.76
2017-09-17T11:46:24.228Z,1000.74
2017-09-17T11:47:24.253Z,1000.72
2017-09-17T11:48:24.274Z,1000.7
2017-09-17T11:49:24.309Z,1000.72
2017-09-17T11:50:24.322Z,1000.73
2017-09-17T11:51:24.348Z,1000.71
2017-09-17T11:52:24.369Z,1000.68
2017-09-17T11:53:24.395Z,1000.66
2017-09-17T11:54:24.417Z,1000.63
2017-09-17T11:55:24.441Z,1000.62
2017-09-17T11:56:24.464Z,1000.58
2017-09-17T11:57:24.487Z,1000.57
2017-09-17T11:58:24.514Z,1000.56
2017-09-17T11:59:24.534Z,1000.52
2017-09-17T12:00:24.558Z,1000.56
2017-09-17T12:01:24.587Z,1000.58
2017-09-17T12:02:24.609Z,1000.55
2017-09-17T12:03:24.671Z,1000.59
2017-09-17T12:04:24.658Z,1000.55
2017-09-17T12:05:24.679Z,1000.53
2017-09-17T12:06:24.704Z,1000.58
2017-09-17T12:07:24.728Z,1000.59
2017-09-17T12:08:24.750Z,1000.58